createdAt,value
2022-12-26T00:02:32.920Z,84.38
2022-12-26T00:07:34.664Z,84.67
2022-12-26T00:12:36.271Z,84.35
2022-12-26T00:17:37.947Z,84.33
2022-12-26T00:22:39.523Z,84.41
2022-12-26T00:27:41.097Z,84.30
2022-12-26T00:32:43.409Z,83.99
2022-12-26T00:37:45.011Z,84.28
2022-12-26T00:42:46.740Z,84.30
2022-12-26T00:47:48.328Z,83.77
2022-12-26T00:52:49.979Z,83.80
2022-12-26T00:57:51.620Z,83.66
2022-12-26T01:02:53.295Z,83.74
2022-12-26T01:08:23.020Z,83.58
2022-12-26T01:13:16.972Z,83.46
2022-12-26T01:18:18.997Z,83.81
2022-12-26T01:23:20.589Z,83.70
2022-12-26T01:28:22.270Z,83.83
2022-12-26T01:33:23.874Z,83.60
2022-12-26T01:38:25.654Z,82.96
2022-12-26T01:43:27.215Z,83.32
2022-12-26T01:48:33.735Z,83.86
2022-12-26T01:53:42.782Z,83.60
2022-12-26T01:58:50.987Z,83.94
2022-12-26T02:04:11.537Z,83.55
2022-12-26T02:09:13.402Z,83.69
2022-12-26T02:14:15.252Z,83.75
2022-12-26T02:19:35.588Z,83.44
2022-12-26T02:24:46.203Z,83.68
2022-12-26T02:30:27.934Z,83.36
2022-12-26T02:36:14.178Z,83.61
2022-12-26T02:41:31.548Z,83.53
2022-12-26T02:47:00.037Z,83.01
2022-12-26T02:52:29.912Z,83.22
2022-12-26T02:57:55.253Z,83.25
2022-12-26T03:03:26.588Z,82.73
2022-12-26T03:08:49.464Z,83.27
2022-12-26T03:13:51.431Z,83.75
2022-12-26T03:18:57.934Z,83.54
2022-12-26T03:24:02.057Z,83.02
2022-12-26T03:29:22.597Z,82.84
2022-12-26T03:34:24.500Z,83.02
2022-12-26T03:39:58.801Z,83.08
2022-12-26T03:45:24.839Z,82.94
2022-12-26T03:50:54.538Z,83.43
2022-12-26T03:56:20.291Z,83.10
2022-12-26T04:01:42.563Z,83.60
2022-12-26T04:07:16.530Z,83.10
2022-12-26T04:12:40.457Z,83.60
2022-12-26T04:18:06.756Z,83.47
2022-12-26T04:23:50.263Z,83.67
2022-12-26T04:29:10.273Z,83.43
2022-12-26T04:34:39.119Z,83.42
2022-12-26T04:40:02.198Z,83.58
2022-12-26T04:45:05.611Z,83.26
2022-12-26T04:50:13.395Z,82.46
2022-12-26T04:55:15.236Z,81.60
2022-12-26T05:00:17.297Z,81.05
2022-12-26T05:05:37.496Z,80.60
2022-12-26T05:10:39.896Z,79.92
2022-12-26T05:16:00.169Z,79.69
2022-12-26T05:21:21.245Z,79.66
2022-12-26T05:26:42.360Z,80.42
2022-12-26T05:31:44.178Z,79.40
2022-12-26T05:36:51.551Z,78.44
2022-12-26T05:41:53.278Z,79.17
2022-12-26T05:46:54.969Z,77.94
2022-12-26T05:51:56.612Z,77.71
2022-12-26T05:56:58.259Z,78.09
2022-12-26T06:02:00.044Z,77.94
2022-12-26T06:07:02.177Z,77.40
2022-12-26T06:12:03.742Z,77.80
2022-12-26T06:17:05.343Z,78.25
2022-12-26T06:22:06.917Z,77.76
2022-12-26T06:27:08.629Z,78.31
2022-12-26T06:32:10.195Z,77.89
2022-12-26T06:37:11.849Z,77.86
2022-12-26T06:42:13.409Z,78.13
2022-12-26T06:47:14.999Z,77.93
2022-12-26T06:52:16.830Z,78.11
2022-12-26T06:57:18.412Z,78.02
2022-12-26T07:02:20.036Z,77.94
2022-12-26T07:07:21.664Z,77.56
2022-12-26T07:12:23.316Z,77.40
2022-12-26T07:17:24.895Z,77.30
2022-12-26T07:22:26.492Z,78.11
2022-12-26T07:27:28.103Z,78.18
2022-12-26T07:32:29.675Z,78.41
2022-12-26T07:37:31.259Z,77.63
2022-12-26T07:42:32.855Z,78.10
2022-12-26T07:47:34.489Z,77.92
2022-12-26T07:52:36.039Z,77.79
2022-12-26T07:57:52.768Z,77.74
2022-12-26T08:02:54.501Z,77.53
2022-12-26T08:07:56.367Z,77.18
2022-12-26T08:12:57.945Z,77.00
2022-12-26T08:17:59.652Z,76.71
2022-12-26T08:23:02.372Z,76.34
2022-12-26T08:28:04.066Z,75.87
2022-12-26T08:33:05.737Z,76.05
2022-12-26T08:38:07.495Z,75.13
2022-12-26T08:43:30.317Z,75.12
2022-12-26T08:48:31.200Z,75.28
2022-12-26T08:53:35.629Z,75.67
2022-12-26T08:58:37.709Z,74.68
2022-12-26T09:03:40.133Z,74.92
2022-12-26T09:08:42.500Z,74.63
2022-12-26T09:13:44.930Z,74.93
2022-12-26T09:18:47.848Z,74.47
2022-12-26T09:23:51.158Z,74.90
2022-12-26T09:28:53.384Z,74.31
2022-12-26T09:33:55.256Z,74.28
2022-12-26T09:38:58.734Z,73.92
2022-12-26T09:44:10.108Z,73.05
2022-12-26T09:49:23.472Z,73.01
2022-12-26T09:54:54.770Z,73.28
2022-12-26T09:59:58.591Z,73.69
2022-12-26T10:05:00.552Z,72.85
2022-12-26T10:10:15.075Z,73.13
2022-12-26T10:15:55.187Z,73.48
2022-12-26T10:21:21.906Z,73.14
2022-12-26T10:26:27.400Z,74.69
2022-12-26T10:31:56.333Z,74.69
2022-12-26T10:37:21.080Z,73.97
2022-12-26T10:42:33.844Z,74.64
2022-12-26T10:47:39.325Z,74.25
2022-12-26T10:52:41.457Z,73.77
2022-12-26T10:57:44.965Z,74.54
2022-12-26T11:03:02.619Z,74.44
2022-12-26T11:08:09.525Z,74.43
2022-12-26T11:13:19.042Z,73.93
2022-12-26T11:18:39.361Z,73.50
2022-12-26T11:23:41.018Z,73.58
2022-12-26T11:28:43.030Z,72.91
2022-12-26T11:33:46.231Z,72.84
2022-12-26T11:38:47.748Z,72.30
2022-12-26T11:43:51.301Z,72.91
2022-12-26T11:48:52.969Z,72.90
2022-12-26T11:54:22.406Z,72.59
2022-12-26T11:59:24.028Z,72.07
2022-12-26T12:04:25.599Z,72.55
2022-12-26T12:09:27.122Z,72.05
2022-12-26T12:14:39.413Z,72.36
2022-12-26T12:19:47.407Z,72.29
2022-12-26T12:25:07.487Z,72.98
2022-12-26T12:30:20.028Z,73.15
2022-12-26T12:35:30.298Z,72.83
2022-12-26T12:40:31.807Z,73.03
2022-12-26T12:46:05.832Z,73.41
2022-12-26T12:51:17.572Z,73.60
2022-12-26T12:56:24.930Z,73.97
2022-12-26T13:01:33.630Z,73.36
2022-12-26T13:06:40.610Z,74.28
2022-12-26T13:11:53.322Z,77.39
2022-12-26T13:17:19.419Z,80.32
2022-12-26T13:22:51.540Z,81.28
2022-12-26T13:27:54.872Z,81.76
2022-12-26T13:32:56.892Z,81.82
2022-12-26T13:37:58.677Z,82.63
2022-12-26T13:43:42.373Z,84.67
2022-12-26T13:48:43.876Z,85.06
2022-12-26T13:53:58.601Z,84.89
2022-12-26T13:59:36.859Z,85.80
2022-12-26T14:05:12.413Z,86.35
2022-12-26T14:10:22.824Z,87.00
2022-12-26T14:16:16.263Z,85.64
2022-12-26T14:21:36.398Z,84.92
2022-12-26T14:26:44.122Z,86.15
2022-12-26T14:32:33.873Z,86.00
2022-12-26T14:37:49.744Z,85.98
2022-12-26T14:43:12.793Z,85.65
2022-12-26T14:48:17.147Z,87.03
2022-12-26T14:53:24.616Z,87.48
2022-12-26T14:58:32.085Z,86.16
2022-12-26T15:03:49.005Z,86.08
2022-12-26T15:09:02.529Z,86.01
2022-12-26T15:14:22.250Z,85.34
2022-12-26T15:20:02.539Z,84.55
2022-12-26T15:25:36.431Z,83.83
2022-12-26T15:30:50.296Z,84.63
2022-12-26T15:36:25.859Z,83.59
2022-12-26T15:41:40.662Z,84.92
2022-12-26T15:46:44.426Z,84.20
2022-12-26T15:52:03.371Z,84.43
2022-12-26T15:57:13.811Z,84.52
2022-12-26T16:02:33.353Z,84.52
2022-12-26T16:08:08.403Z,84.39
2022-12-26T16:13:12.674Z,83.56
2022-12-26T16:18:15.465Z,83.64
2022-12-26T16:23:20.143Z,83.92
2022-12-26T16:28:38.307Z,82.95
2022-12-26T16:33:41.485Z,83.85
2022-12-26T16:38:44.068Z,83.96
2022-12-26T16:43:45.681Z,83.90
2022-12-26T16:48:53.551Z,84.60
2022-12-26T16:53:55.110Z,84.91
2022-12-26T16:59:05.387Z,85.16
2022-12-26T17:04:21.110Z,85.15
2022-12-26T17:09:24.803Z,85.08
2022-12-26T17:14:35.763Z,84.58
2022-12-26T17:19:37.645Z,84.51
2022-12-26T17:24:39.259Z,84.96
2022-12-26T17:29:49.959Z,84.66
2022-12-26T17:34:51.567Z,84.88
2022-12-26T17:40:00.908Z,84.17
2022-12-26T17:45:04.829Z,83.90
2022-12-26T17:50:06.459Z,84.84
2022-12-26T17:55:15.059Z,83.71
2022-12-26T18:00:22.004Z,83.21
2022-12-26T18:05:23.666Z,83.32
2022-12-26T18:10:28.932Z,81.28
2022-12-26T18:15:31.419Z,81.44
2022-12-26T18:20:33.057Z,81.03
2022-12-26T18:25:34.657Z,81.26
2022-12-26T18:30:36.302Z,80.61
2022-12-26T18:35:39.634Z,80.60
2022-12-26T18:40:44.013Z,80.81
2022-12-26T18:45:45.623Z,80.83
2022-12-26T18:50:49.056Z,80.74
2022-12-26T18:55:50.656Z,80.45
2022-12-26T19:00:52.273Z,80.49
2022-12-26T19:05:53.898Z,80.80
2022-12-26T19:10:55.461Z,80.87
2022-12-26T19:15:57.146Z,81.06
2022-12-26T19:20:58.842Z,80.06
2022-12-26T19:26:00.428Z,80.25
2022-12-26T19:31:28.064Z,79.37
2022-12-26T19:36:29.688Z,78.53
2022-12-26T19:41:31.471Z,78.04
2022-12-26T19:46:33.075Z,78.29
2022-12-26T19:51:34.727Z,77.78
2022-12-26T19:56:36.312Z,77.58
2022-12-26T20:01:38.014Z,77.43
2022-12-26T20:06:39.916Z,76.72
2022-12-26T20:11:44.460Z,75.96
2022-12-26T20:17:08.567Z,76.82
2022-12-26T20:22:11.649Z,77.10
2022-12-26T20:27:13.855Z,80.59
2022-12-26T20:32:15.414Z,84.22
2022-12-26T20:37:18.057Z,82.61
2022-12-26T20:42:19.674Z,83.24
2022-12-26T20:47:21.323Z,84.52
2022-12-26T20:52:22.935Z,85.93
2022-12-26T20:57:24.520Z,86.10
2022-12-26T21:02:26.256Z,87.36
2022-12-26T21:07:28.099Z,87.23
2022-12-26T21:12:29.677Z,87.77
2022-12-26T21:17:31.240Z,88.08
2022-12-26T21:22:32.899Z,87.75
2022-12-26T21:27:34.971Z,86.79
2022-12-26T21:32:36.538Z,85.46
2022-12-26T21:37:53.508Z,83.80
2022-12-26T21:42:55.126Z,84.23
2022-12-26T21:47:56.744Z,84.55
2022-12-26T21:52:58.400Z,82.67
2022-12-26T21:58:00.648Z,81.08
2022-12-26T22:03:21.618Z,80.37
2022-12-26T22:08:23.313Z,81.52
2022-12-26T22:13:26.012Z,80.61
2022-12-26T22:18:27.618Z,77.32
2022-12-26T22:23:29.222Z,79.34
2022-12-26T22:28:31.484Z,77.53
2022-12-26T22:33:33.330Z,78.49
2022-12-26T22:38:36.101Z,79.07
2022-12-26T22:43:37.774Z,78.59
2022-12-26T22:48:39.473Z,81.07
2022-12-26T22:53:42.331Z,82.18
2022-12-26T22:58:43.977Z,80.71
2022-12-26T23:03:46.121Z,80.41
2022-12-26T23:08:49.425Z,80.81
2022-12-26T23:13:51.342Z,80.47
2022-12-26T23:19:14.088Z,80.99
2022-12-26T23:24:20.074Z,80.19
2022-12-26T23:29:42.028Z,80.00
2022-12-26T23:34:43.609Z,78.72
2022-12-26T23:39:45.255Z,78.23
2022-12-26T23:44:46.925Z,77.09
2022-12-26T23:49:48.568Z,76.41
2022-12-26T23:54:50.127Z,76.66
2022-12-26T23:59:51.699Z,77.46
